Time;durP1;ratioP1;P1;durP2;ratioP2;P2;SDS_P1;SDS_P2;PMS_P1;PMS_P2;Temp;Humidity;BMP_temperature;BMP_pressure;BME280_temperature;BME280_humidity;BME280_pressure;Samples;Min_cycle;Max_cycle;Signal;HPM_P1;HPM_P2
2022/10/15 00:00:07;;;;;;;3.70;2.65;;;;;;;;;;5028192;28;20474;-78
2022/10/15 00:02:34;;;;;;;5.43;2.28;;;;;;;;;;5027351;28;20025;-78
2022/10/15 00:05:00;;;;;;;5.60;2.38;;;;;;;;;;5026746;28;20495;-78
2022/10/15 00:07:28;;;;;;;5.03;2.10;;;;;;;;;;5021848;28;20025;-78
2022/10/15 00:09:54;;;;;;;3.30;1.95;;;;;;;;;;5017056;28;20045;-78
2022/10/15 00:12:20;;;;;;;3.67;2.42;;;;;;;;;;5031572;28;20026;-78
2022/10/15 00:14:46;;;;;;;2.20;2.00;;;;;;;;;;5031224;28;20402;-78
2022/10/15 00:17:12;;;;;;;5.38;2.20;;;;;;;;;;5041660;28;20024;-78
2022/10/15 00:19:38;;;;;;;5.18;2.15;;;;;;;;;;5029824;28;20592;-77
2022/10/15 00:22:04;;;;;;;6.05;2.25;;;;;;;;;;5026464;28;20021;-78
2022/10/15 00:24:31;;;;;;;4.25;2.00;;;;;;;;;;5027030;28;20050;-77
2022/10/15 00:26:57;;;;;;;2.17;1.80;;;;;;;;;;5027651;28;20022;-78
2022/10/15 00:29:23;;;;;;;3.53;2.03;;;;;;;;;;5029527;28;20468;-78
2022/10/15 00:31:49;;;;;;;7.35;2.28;;;;;;;;;;5030316;28;20022;-78
2022/10/15 00:34:15;;;;;;;5.47;2.30;;;;;;;;;;5031976;28;20044;-78
2022/10/15 00:36:41;;;;;;;3.83;2.15;;;;;;;;;;5030193;28;20052;-78
2022/10/15 00:39:07;;;;;;;5.88;2.13;;;;;;;;;;5027631;28;20052;-78
2022/10/15 00:41:35;;;;;;;4.97;2.00;;;;;;;;;;5030920;28;20065;-78
2022/10/15 00:44:03;;;;;;;5.43;2.13;;;;;;;;;;5030132;28;20026;-77
2022/10/15 00:46:40;;;;;;;6.03;2.60;;;;;;;;;;5030533;28;20100;-77
2022/10/15 00:49:18;;;;;;;4.30;2.15;;;;;;;;;;5047143;28;20458;-77
2022/10/15 00:51:45;;;;;;;5.82;2.17;;;;;;;;;;5025385;28;20112;-78
2022/10/15 00:54:12;;;;;;;3.90;1.90;;;;;;;;;;5024067;28;20040;-78
2022/10/15 00:56:39;;;;;;;2.65;1.70;;;;;;;;;;5024231;28;20055;-78
2022/10/15 00:59:06;;;;;;;3.92;2.42;;;;;;;;;;5025158;28;20025;-78
2022/10/15 01:01:33;;;;;;;5.93;1.90;;;;;;;;;;5043270;28;20033;-78
2022/10/15 01:04:00;;;;;;;5.07;1.92;;;;;;;;;;5022516;28;20056;-78
2022/10/15 01:06:26;;;;;;;5.35;1.70;;;;;;;;;;5045332;28;20027;-78
2022/10/15 01:08:52;;;;;;;4.47;1.98;;;;;;;;;;5044228;28;20025;-78
2022/10/15 01:11:27;;;;;;;6.85;2.25;;;;;;;;;;5029804;28;20052;-78
2022/10/15 01:14:00;;;;;;;3.88;2.10;;;;;;;;;;5025712;28;20053;-78
2022/10/15 01:16:35;;;;;;;5.63;2.17;;;;;;;;;;5038491;28;20116;-78
2022/10/15 01:19:03;;;;;;;4.10;1.83;;;;;;;;;;5029338;28;20508;-77
2022/10/15 01:21:35;;;;;;;3.97;2.50;;;;;;;;;;5036992;28;20045;-78
2022/10/15 01:24:21;;;;;;;4.72;1.98;;;;;;;;;;5029167;28;20607;-78
2022/10/15 01:26:50;;;;;;;2.35;2.15;;;;;;;;;;5024337;28;20029;-78
2022/10/15 01:29:19;;;;;;;2.70;1.80;;;;;;;;;;5027542;28;20025;-77
2022/10/15 01:32:01;;;;;;;3.90;1.83;;;;;;;;;;5032121;28;20470;-78
2022/10/15 01:34:33;;;;;;;3.17;1.75;;;;;;;;;;5045512;28;20411;-78
2022/10/15 01:37:17;;;;;;;12.95;2.95;;;;;;;;;;5022265;28;20124;-78
2022/10/15 01:39:47;;;;;;;4.43;2.03;;;;;;;;;;5021252;28;20410;-78
2022/10/15 01:42:16;;;;;;;2.92;1.90;;;;;;;;;;5029306;28;20587;-78
2022/10/15 01:44:45;;;;;;;4.80;1.98;;;;;;;;;;5044177;28;20749;-78
2022/10/15 01:47:19;;;;;;;3.70;1.80;;;;;;;;;;5029749;28;20505;-78
2022/10/15 01:49:46;;;;;;;3.13;1.50;;;;;;;;;;5031313;28;20152;-78
2022/10/15 01:52:14;;;;;;;4.38;2.03;;;;;;;;;;5029629;28;20032;-78
2022/10/15 01:54:41;;;;;;;9.73;3.17;;;;;;;;;;5029233;28;20390;-78
2022/10/15 01:57:07;;;;;;;5.57;2.20;;;;;;;;;;5024152;28;20087;-77
2022/10/15 01:59:34;;;;;;;2.60;1.75;;;;;;;;;;5045010;28;20021;-78
2022/10/15 02:02:00;;;;;;;5.32;2.05;;;;;;;;;;5029142;28;20039;-78
2022/10/15 02:04:28;;;;;;;8.60;2.45;;;;;;;;;;5029114;28;20026;-77
2022/10/15 02:07:06;;;;;;;4.80;1.75;;;;;;;;;;5027343;28;20021;-78
2022/10/15 02:09:38;;;;;;;4.20;2.00;;;;;;;;;;5028429;28;20084;-78
2022/10/15 02:12:11;;;;;;;4.80;2.15;;;;;;;;;;5041723;28;20017;-78
2022/10/15 02:14:50;;;;;;;5.00;2.03;;;;;;;;;;5043756;28;20056;-78
2022/10/15 02:17:18;;;;;;;5.70;1.75;;;;;;;;;;5028090;28;20504;-78
2022/10/15 02:20:02;;;;;;;5.78;1.95;;;;;;;;;;5029214;28;20022;-78
2022/10/15 02:22:33;;;;;;;7.25;2.58;;;;;;;;;;5027500;28;20025;-78
2022/10/15 02:25:08;;;;;;;7.45;2.78;;;;;;;;;;5042500;28;20138;-77
2022/10/15 02:27:34;;;;;;;9.30;2.20;;;;;;;;;;5017640;28;20018;-77
2022/10/15 02:30:06;;;;;;;8.60;2.38;;;;;;;;;;5028542;28;20052;-78
2022/10/15 02:32:33;;;;;;;8.75;2.22;;;;;;;;;;5029458;28;20029;-77
2022/10/15 02:35:00;;;;;;;7.20;2.80;;;;;;;;;;5025949;28;20402;-77
2022/10/15 02:37:27;;;;;;;7.53;2.40;;;;;;;;;;5043982;28;20409;-75
2022/10/15 02:39:53;;;;;;;4.80;2.00;;;;;;;;;;5028667;28;20083;-76
2022/10/15 02:42:20;;;;;;;9.05;2.53;;;;;;;;;;5027879;28;20029;-75
2022/10/15 02:44:46;;;;;;;5.57;2.05;;;;;;;;;;5028298;28;20038;-76
2022/10/15 02:47:12;;;;;;;2.10;1.60;;;;;;;;;;5027282;28;20021;-75
2022/10/15 02:49:38;;;;;;;2.80;1.80;;;;;;;;;;5027124;28;20089;-73
2022/10/15 02:52:04;;;;;;;3.15;1.80;;;;;;;;;;5027178;28;20024;-76
2022/10/15 02:54:30;;;;;;;3.28;1.77;;;;;;;;;;5042803;28;20437;-76
2022/10/15 02:56:56;;;;;;;3.40;1.80;;;;;;;;;;5026786;28;20067;-76
2022/10/15 02:59:23;;;;;;;2.40;1.70;;;;;;;;;;5041821;28;20061;-75
2022/10/15 03:01:49;;;;;;;1.30;1.20;;;;;;;;;;5028284;28;20033;-75
2022/10/15 03:04:15;;;;;;;1.30;1.30;;;;;;;;;;5021791;28;20061;-76
2022/10/15 03:06:41;;;;;;;1.88;1.15;;;;;;;;;;5033058;28;20125;-77
2022/10/15 03:09:08;;;;;;;1.45;1.20;;;;;;;;;;5037148;28;20025;-76
2022/10/15 03:11:34;;;;;;;3.47;2.05;;;;;;;;;;5044137;28;20021;-76
2022/10/15 03:14:00;;;;;;;1.38;1.33;;;;;;;;;;5022051;28;20106;-76
2022/10/15 03:16:26;;;;;;;1.30;1.30;;;;;;;;;;5030993;28;20056;-76
2022/10/15 03:18:52;;;;;;;1.02;1.02;;;;;;;;;;5023622;28;20055;-75
2022/10/15 03:21:18;;;;;;;2.40;1.48;;;;;;;;;;5026035;28;20048;-76
2022/10/15 03:23:44;;;;;;;1.23;1.10;;;;;;;;;;5024364;28;20053;-76
2022/10/15 03:26:10;;;;;;;1.20;1.20;;;;;;;;;;5027795;28;20486;-76
2022/10/15 03:28:36;;;;;;;1.40;1.30;;;;;;;;;;5027272;28;20033;-77
2022/10/15 03:31:02;;;;;;;1.35;1.25;;;;;;;;;;5024300;28;20394;-76
2022/10/15 03:33:28;;;;;;;1.35;1.27;;;;;;;;;;5023951;28;20022;-76
2022/10/15 03:35:56;;;;;;;2.33;2.22;;;;;;;;;;5027203;28;20018;-76
2022/10/15 03:38:22;;;;;;;2.55;1.20;;;;;;;;;;5026529;28;20138;-76
2022/10/15 03:40:48;;;;;;;1.48;1.17;;;;;;;;;;5027429;28;20033;-76
2022/10/15 03:43:14;;;;;;;1.50;1.40;;;;;;;;;;5025081;28;20030;-76
2022/10/15 03:45:40;;;;;;;1.08;1.08;;;;;;;;;;5039218;28;20037;-77
2022/10/15 03:48:06;;;;;;;1.13;1.10;;;;;;;;;;5020881;28;20030;-76
2022/10/15 03:50:33;;;;;;;1.40;1.30;;;;;;;;;;5031801;28;20026;-76
2022/10/15 03:52:59;;;;;;;1.33;1.33;;;;;;;;;;5030779;28;20497;-76
2022/10/15 03:55:25;;;;;;;2.08;1.30;;;;;;;;;;5027543;28;20117;-76
2022/10/15 03:57:51;;;;;;;1.38;1.17;;;;;;;;;;5028069;28;20040;-77
2022/10/15 04:00:17;;;;;;;1.10;1.10;;;;;;;;;;5026217;28;20025;-76
2022/10/15 04:02:43;;;;;;;1.40;1.30;;;;;;;;;;5031604;28;20021;-76
2022/10/15 04:05:09;;;;;;;1.10;1.10;;;;;;;;;;5030322;28;20043;-76
2022/10/15 04:07:35;;;;;;;2.53;1.38;;;;;;;;;;5031861;28;20026;-75
2022/10/15 04:10:02;;;;;;;1.40;1.30;;;;;;;;;;5030642;28;20037;-76
2022/10/15 04:12:28;;;;;;;1.42;1.30;;;;;;;;;;5040607;28;20029;-76
2022/10/15 04:14:54;;;;;;;1.50;1.40;;;;;;;;;;5042985;28;20039;-76
2022/10/15 04:17:20;;;;;;;1.30;1.30;;;;;;;;;;5029271;28;20094;-76
2022/10/15 04:19:46;;;;;;;1.17;1.17;;;;;;;;;;5044526;28;20478;-78
2022/10/15 04:22:12;;;;;;;1.98;1.60;;;;;;;;;;5026484;28;20029;-76
2022/10/15 04:24:38;;;;;;;1.35;1.33;;;;;;;;;;5034005;28;20895;-77
2022/10/15 04:27:04;;;;;;;1.50;1.40;;;;;;;;;;5030626;28;20021;-77
2022/10/15 04:29:30;;;;;;;2.55;1.70;;;;;;;;;;5027222;28;20071;-77
2022/10/15 04:31:56;;;;;;;2.63;1.83;;;;;;;;;;5031079;28;20501;-76
2022/10/15 04:34:22;;;;;;;2.80;1.92;;;;;;;;;;5029722;28;20073;-76
2022/10/15 04:36:49;;;;;;;3.15;1.70;;;;;;;;;;5026740;28;20075;-76
2022/10/15 04:39:15;;;;;;;1.65;1.55;;;;;;;;;;5030089;28;20580;-76
2022/10/15 04:41:41;;;;;;;1.50;1.40;;;;;;;;;;5028057;28;20066;-77
2022/10/15 04:44:07;;;;;;;1.40;1.30;;;;;;;;;;5028988;28;20064;-76
2022/10/15 04:46:33;;;;;;;1.40;1.33;;;;;;;;;;5020185;28;20030;-76
2022/10/15 04:48:59;;;;;;;2.10;1.17;;;;;;;;;;5041989;28;20022;-76
2022/10/15 04:51:26;;;;;;;2.15;1.42;;;;;;;;;;5024315;28;20032;-76
2022/10/15 04:53:52;;;;;;;1.30;1.20;;;;;;;;;;5028257;28;20501;-76
2022/10/15 04:56:19;;;;;;;1.52;1.40;;;;;;;;;;5028185;28;20060;-76
2022/10/15 04:58:46;;;;;;;1.10;1.10;;;;;;;;;;5029740;28;20025;-76
2022/10/15 05:01:14;;;;;;;1.20;1.20;;;;;;;;;;5027132;28;20033;-76
2022/10/15 05:03:41;;;;;;;1.40;1.40;;;;;;;;;;5029565;28;20018;-76
2022/10/15 05:06:11;;;;;;;1.23;1.20;;;;;;;;;;5029216;28;20022;-76
2022/10/15 05:08:40;;;;;;;1.45;1.10;;;;;;;;;;5028391;28;20021;-76
2022/10/15 05:11:08;;;;;;;2.50;1.30;;;;;;;;;;5028825;28;20028;-76
2022/10/15 05:13:34;;;;;;;1.02;1.02;;;;;;;;;;5027559;28;20037;-76
2022/10/15 05:16:11;;;;;;;1.38;1.27;;;;;;;;;;5021083;28;20065;-77
2022/10/15 05:18:38;;;;;;;2.75;1.20;;;;;;;;;;5011978;28;20034;-76
2022/10/15 05:21:04;;;;;;;1.13;1.02;;;;;;;;;;5029098;28;20026;-76
2022/10/15 05:23:30;;;;;;;1.17;1.17;;;;;;;;;;5038068;28;20029;-76
2022/10/15 05:26:00;;;;;;;1.33;1.23;;;;;;;;;;5038814;28;20795;-76
2022/10/15 05:28:26;;;;;;;1.42;1.33;;;;;;;;;;5027765;28;20036;-76
2022/10/15 05:30:53;;;;;;;1.30;1.20;;;;;;;;;;5028647;28;20148;-77
2022/10/15 05:33:19;;;;;;;1.50;1.40;;;;;;;;;;5029080;28;20017;-76
2022/10/15 05:35:45;;;;;;;1.10;1.10;;;;;;;;;;5028393;28;20036;-76
2022/10/15 05:38:11;;;;;;;1.27;1.17;;;;;;;;;;5023721;28;20034;-77
2022/10/15 05:40:37;;;;;;;1.42;1.25;;;;;;;;;;5030065;28;20029;-77
2022/10/15 05:43:03;;;;;;;2.92;1.35;;;;;;;;;;5027390;28;20482;-77
2022/10/15 05:45:29;;;;;;;1.17;1.17;;;;;;;;;;5028459;28;20048;-76
2022/10/15 05:47:56;;;;;;;1.83;1.45;;;;;;;;;;5028499;28;20021;-76
2022/10/15 05:50:22;;;;;;;2.25;1.55;;;;;;;;;;5029441;28;20431;-76
2022/10/15 05:52:48;;;;;;;1.45;1.35;;;;;;;;;;5026359;28;20021;-77
2022/10/15 05:55:14;;;;;;;2.28;1.55;;;;;;;;;;5017649;28;20029;-76
2022/10/15 05:57:41;;;;;;;1.73;1.30;;;;;;;;;;5036511;28;20037;-77
2022/10/15 06:00:07;;;;;;;3.13;1.17;;;;;;;;;;5038944;28;20491;-76
2022/10/15 06:02:33;;;;;;;2.03;1.30;;;;;;;;;;5027686;28;20494;-77
2022/10/15 06:04:59;;;;;;;2.92;1.75;;;;;;;;;;5024982;28;20057;-76
2022/10/15 06:07:26;;;;;;;1.33;1.27;;;;;;;;;;5037611;28;20112;-76
2022/10/15 06:09:52;;;;;;;1.95;1.40;;;;;;;;;;5026239;28;20025;-77
2022/10/15 06:12:18;;;;;;;2.90;1.52;;;;;;;;;;5021053;28;20029;-76
2022/10/15 06:14:44;;;;;;;2.97;1.50;;;;;;;;;;5026818;28;20124;-75
2022/10/15 06:17:11;;;;;;;1.33;1.25;;;;;;;;;;5025168;28;20029;-77
2022/10/15 06:19:37;;;;;;;1.88;1.48;;;;;;;;;;5027735;28;20116;-76
2022/10/15 06:22:03;;;;;;;3.05;1.42;;;;;;;;;;5027329;28;20528;-76
2022/10/15 06:24:29;;;;;;;1.42;1.30;;;;;;;;;;5033246;28;20037;-76
2022/10/15 06:26:55;;;;;;;1.40;1.30;;;;;;;;;;5023704;28;20045;-76
2022/10/15 06:29:21;;;;;;;2.13;1.58;;;;;;;;;;5016543;28;20082;-76
2022/10/15 06:31:47;;;;;;;1.40;1.30;;;;;;;;;;5031923;28;20032;-76
2022/10/15 06:34:13;;;;;;;2.28;1.42;;;;;;;;;;5026121;28;20034;-76
2022/10/15 06:36:39;;;;;;;1.30;1.30;;;;;;;;;;5027453;28;20220;-77
2022/10/15 06:39:05;;;;;;;3.40;1.40;;;;;;;;;;5027516;28;20545;-76
2022/10/15 06:41:31;;;;;;;1.70;1.55;;;;;;;;;;5027417;28;20520;-76
2022/10/15 06:43:58;;;;;;;3.38;1.60;;;;;;;;;;5027326;28;20188;-76
2022/10/15 06:46:24;;;;;;;3.75;1.50;;;;;;;;;;5027700;28;20022;-76
2022/10/15 06:48:50;;;;;;;3.97;3.08;;;;;;;;;;5026836;28;20410;-76
2022/10/15 06:51:17;;;;;;;2.78;1.60;;;;;;;;;;5027214;28;20026;-77
2022/10/15 06:53:43;;;;;;;2.80;1.48;;;;;;;;;;5044854;28;20082;-76
2022/10/15 06:56:09;;;;;;;2.53;1.27;;;;;;;;;;5026564;28;20025;-77
2022/10/15 06:58:35;;;;;;;3.05;1.48;;;;;;;;;;5027715;28;21376;-76
2022/10/15 07:01:06;;;;;;;2.75;1.48;;;;;;;;;;5039617;28;20034;-76
2022/10/15 07:03:32;;;;;;;2.90;1.60;;;;;;;;;;5025783;28;20494;-76
2022/10/15 07:06:03;;;;;;;3.38;1.70;;;;;;;;;;5027502;28;20024;-77
2022/10/15 07:08:29;;;;;;;2.25;1.48;;;;;;;;;;5019351;28;20030;-77
2022/10/15 07:10:55;;;;;;;2.38;1.50;;;;;;;;;;5026830;28;20097;-76
2022/10/15 07:13:21;;;;;;;6.45;1.83;;;;;;;;;;5028533;28;20096;-76
2022/10/15 07:15:52;;;;;;;1.90;1.80;;;;;;;;;;5033385;28;20497;-76
2022/10/15 07:18:18;;;;;;;2.92;2.10;;;;;;;;;;5025122;28;20021;-77
2022/10/15 07:20:45;;;;;;;4.45;1.48;;;;;;;;;;5028193;28;20060;-77
2022/10/15 07:23:11;;;;;;;2.13;1.60;;;;;;;;;;5025548;28;20041;-77
2022/10/15 07:25:38;;;;;;;2.67;1.42;;;;;;;;;;5025305;28;20570;-77
2022/10/15 07:28:04;;;;;;;6.28;1.95;;;;;;;;;;5019456;28;20462;-77
2022/10/15 07:30:30;;;;;;;2.97;1.40;;;;;;;;;;5027248;28;20049;-77
2022/10/15 07:32:57;;;;;;;1.70;1.60;;;;;;;;;;5027595;28;20028;-78
2022/10/15 07:35:24;;;;;;;3.67;1.55;;;;;;;;;;5026337;28;20034;-77
2022/10/15 07:37:50;;;;;;;1.80;1.70;;;;;;;;;;5035793;28;20061;-79
2022/10/15 07:40:17;;;;;;;4.47;1.88;;;;;;;;;;5027522;28;20063;-77
2022/10/15 07:42:43;;;;;;;3.13;2.15;;;;;;;;;;5027190;28;20033;-78
2022/10/15 07:45:09;;;;;;;4.05;1.90;;;;;;;;;;5025757;28;20060;-77
2022/10/15 07:47:35;;;;;;;1.70;1.50;;;;;;;;;;5026241;28;20048;-77
2022/10/15 07:50:01;;;;;;;3.25;1.60;;;;;;;;;;5026537;28;20033;-76
2022/10/15 07:52:28;;;;;;;2.67;1.40;;;;;;;;;;5027733;28;20021;-77
2022/10/15 07:54:54;;;;;;;2.13;1.30;;;;;;;;;;5022680;28;20683;-77
2022/10/15 07:57:20;;;;;;;5.03;1.73;;;;;;;;;;5026623;28;20025;-77
2022/10/15 07:59:46;;;;;;;5.82;1.98;;;;;;;;;;5027123;28;20379;-77
2022/10/15 08:02:16;;;;;;;1.48;1.38;;;;;;;;;;5028674;28;20493;-78
2022/10/15 08:04:42;;;;;;;2.33;1.40;;;;;;;;;;5026247;28;20057;-77
2022/10/15 08:07:08;;;;;;;3.65;2.15;;;;;;;;;;5022856;28;20025;-78
2022/10/15 08:09:34;;;;;;;2.03;1.45;;;;;;;;;;5024302;28;20533;-78
2022/10/15 08:12:00;;;;;;;3.38;1.70;;;;;;;;;;5026220;28;20051;-77
2022/10/15 08:14:27;;;;;;;3.60;2.47;;;;;;;;;;5025586;28;20033;-78
2022/10/15 08:16:53;;;;;;;5.47;2.53;;;;;;;;;;5026238;28;20029;-78
2022/10/15 08:19:19;;;;;;;1.95;1.75;;;;;;;;;;5037835;28;20112;-79
2022/10/15 08:21:45;;;;;;;2.25;1.80;;;;;;;;;;5027767;28;20040;-78
2022/10/15 08:24:11;;;;;;;3.78;2.30;;;;;;;;;;5046040;28;20049;-77
2022/10/15 08:26:38;;;;;;;4.03;1.90;;;;;;;;;;5025450;28;20077;-78
2022/10/15 08:29:04;;;;;;;4.15;1.85;;;;;;;;;;5029946;28;20540;-77
2022/10/15 08:31:30;;;;;;;25.10;3.30;;;;;;;;;;5014903;28;20529;-78
2022/10/15 08:33:59;;;;;;;4.85;1.88;;;;;;;;;;5026725;28;20025;-75
2022/10/15 08:36:25;;;;;;;2.42;1.58;;;;;;;;;;5026005;28;20105;-76
2022/10/15 08:38:51;;;;;;;5.47;1.75;;;;;;;;;;5045742;28;20451;-76
2022/10/15 08:41:22;;;;;;;7.88;2.00;;;;;;;;;;5029053;28;20041;-75
2022/10/15 08:43:48;;;;;;;4.50;2.10;;;;;;;;;;5045169;28;20025;-75
2022/10/15 08:46:41;;;;;;;2.85;1.70;;;;;;;;;;5023715;28;20362;-75
2022/10/15 08:49:12;;;;;;;6.53;2.10;;;;;;;;;;5028012;28;20458;-76
2022/10/15 08:51:46;;;;;;;2.50;1.90;;;;;;;;;;5023080;28;20030;-76
2022/10/15 08:54:16;;;;;;;4.43;1.83;;;;;;;;;;5040825;28;20036;-76
2022/10/15 08:56:48;;;;;;;4.00;1.70;;;;;;;;;;5027743;28;20025;-75
2022/10/15 08:59:20;;;;;;;5.57;2.03;;;;;;;;;;5028689;28;20029;-76
2022/10/15 09:02:02;;;;;;;9.60;3.25;;;;;;;;;;5024281;28;20045;-77
2022/10/15 09:04:46;;;;;;;5.32;1.83;;;;;;;;;;5026607;28;20379;-77
2022/10/15 09:07:14;;;;;;;7.50;2.30;;;;;;;;;;5029453;28;20035;-75
2022/10/15 09:09:40;;;;;;;3.33;2.45;;;;;;;;;;5031124;28;20504;-76
2022/10/15 09:12:24;;;;;;;11.07;2.80;;;;;;;;;;5031324;28;20048;-76
2022/10/15 09:14:51;;;;;;;8.85;2.15;;;;;;;;;;5029991;28;20033;-76
2022/10/15 09:17:22;;;;;;;9.77;2.72;;;;;;;;;;5027842;28;20033;-77
2022/10/15 09:19:53;;;;;;;5.63;2.05;;;;;;;;;;5041051;28;20433;-76
2022/10/15 09:22:22;;;;;;;5.78;2.72;;;;;;;;;;5027810;28;20034;-76
2022/10/15 09:24:48;;;;;;;8.32;2.33;;;;;;;;;;5021927;28;20618;-76
2022/10/15 09:27:38;;;;;;;11.30;3.13;;;;;;;;;;5042588;28;20021;-75
2022/10/15 09:30:09;;;;;;;6.85;2.47;;;;;;;;;;5026382;28;20492;-75
2022/10/15 09:32:39;;;;;;;5.35;2.65;;;;;;;;;;5031229;28;20018;-76
2022/10/15 09:35:14;;;;;;;9.52;2.50;;;;;;;;;;5024344;28;20072;-75
2022/10/15 09:37:57;;;;;;;6.07;2.25;;;;;;;;;;5022757;28;20033;-75
2022/10/15 09:40:42;;;;;;;12.10;3.00;;;;;;;;;;5028296;28;20029;-76
2022/10/15 09:43:09;;;;;;;6.35;3.00;;;;;;;;;;5028238;28;20034;-76
2022/10/15 09:45:36;;;;;;;9.23;2.80;;;;;;;;;;5026327;28;20033;-77
2022/10/15 09:48:11;;;;;;;8.63;2.42;;;;;;;;;;5022834;28;20029;-77
2022/10/15 09:50:42;;;;;;;6.15;2.17;;;;;;;;;;5029010;28;20021;-77
2022/10/15 09:53:27;;;;;;;4.70;2.17;;;;;;;;;;5038993;28;20056;-77
2022/10/15 09:56:07;;;;;;;9.15;2.63;;;;;;;;;;5025252;28;20479;-76
2022/10/15 09:58:45;;;;;;;3.78;1.95;;;;;;;;;;5032873;28;20040;-77
2022/10/15 10:01:18;;;;;;;7.72;2.35;;;;;;;;;;5023321;28;20026;-77
2022/10/15 10:03:44;;;;;;;6.15;2.78;;;;;;;;;;5029270;28;20060;-77
2022/10/15 10:06:12;;;;;;;4.50;1.88;;;;;;;;;;5029759;28;20061;-74
2022/10/15 10:08:46;;;;;;;6.45;2.00;;;;;;;;;;5028123;28;20029;-76
2022/10/15 10:11:12;;;;;;;4.50;1.98;;;;;;;;;;5023841;28;20529;-75
2022/10/15 10:13:41;;;;;;;3.95;1.83;;;;;;;;;;5027690;28;20949;-75
2022/10/15 10:16:12;;;;;;;6.43;1.80;;;;;;;;;;5026507;28;20536;-77
2022/10/15 10:18:38;;;;;;;7.40;2.00;;;;;;;;;;5031533;28;20041;-77
2022/10/15 10:21:06;;;;;;;7.45;4.40;;;;;;;;;;5031461;28;20450;-78
2022/10/15 10:23:34;;;;;;;5.93;2.38;;;;;;;;;;5041229;28;20807;-78
2022/10/15 10:26:01;;;;;;;5.40;1.75;;;;;;;;;;5022201;28;20025;-76
2022/10/15 10:28:31;;;;;;;5.13;2.03;;;;;;;;;;5025026;28;20108;-76
2022/10/15 10:30:59;;;;;;;6.00;1.95;;;;;;;;;;5021936;28;20055;-76
2022/10/15 10:33:29;;;;;;;5.53;2.10;;;;;;;;;;5024468;28;20040;-77
2022/10/15 10:35:56;;;;;;;4.75;2.03;;;;;;;;;;5024016;28;20497;-77
2022/10/15 10:38:24;;;;;;;7.97;2.50;;;;;;;;;;5021224;28;20029;-77
2022/10/15 10:40:55;;;;;;;5.30;2.67;;;;;;;;;;5025069;28;20445;-77
2022/10/15 10:43:24;;;;;;;4.03;2.08;;;;;;;;;;5021641;28;20025;-78
2022/10/15 10:45:56;;;;;;;8.60;2.50;;;;;;;;;;5023092;28;20021;-76
2022/10/15 10:48:24;;;;;;;4.72;2.10;;;;;;;;;;5037875;28;20026;-78
2022/10/15 10:51:01;;;;;;;6.45;2.88;;;;;;;;;;5021855;28;20176;-77
2022/10/15 10:53:27;;;;;;;6.70;2.20;;;;;;;;;;5023306;28;20060;-77
2022/10/15 10:55:55;;;;;;;7.03;2.20;;;;;;;;;;5024570;28;20033;-77
2022/10/15 10:58:22;;;;;;;7.88;1.85;;;;;;;;;;5023265;28;20060;-78
2022/10/15 11:00:51;;;;;;;4.18;2.38;;;;;;;;;;5022272;28;20607;-78
2022/10/15 11:03:25;;;;;;;2.97;2.10;;;;;;;;;;5021082;28;20434;-78
2022/10/15 11:05:54;;;;;;;4.53;2.00;;;;;;;;;;5020989;28;20025;-77
2022/10/15 11:08:23;;;;;;;4.03;2.20;;;;;;;;;;5023525;28;20021;-77
2022/10/15 11:11:12;;;;;;;2.03;1.50;;;;;;;;;;5021562;28;20025;-77
2022/10/15 11:13:49;;;;;;;6.60;2.55;;;;;;;;;;5021450;28;20494;-78
2022/10/15 11:16:15;;;;;;;5.40;1.95;;;;;;;;;;5022923;28;20088;-77
2022/10/15 11:18:58;;;;;;;5.28;1.95;;;;;;;;;;5020765;28;20030;-78
2022/10/15 11:21:36;;;;;;;2.25;1.90;;;;;;;;;;5019862;28;20133;-77
2022/10/15 11:24:12;;;;;;;3.15;2.83;;;;;;;;;;5019741;28;20080;-77
2022/10/15 11:26:41;;;;;;;4.72;1.80;;;;;;;;;;5036143;28;20032;-76
2022/10/15 11:29:22;;;;;;;2.25;1.67;;;;;;;;;;5022487;28;20412;-78
2022/10/15 11:32:03;;;;;;;1.65;1.52;;;;;;;;;;5023426;28;20025;-77
2022/10/15 11:34:48;;;;;;;2.95;1.60;;;;;;;;;;5020639;28;20072;-74
2022/10/15 11:37:23;;;;;;;3.77;2.00;;;;;;;;;;5038826;28;20032;-76
2022/10/15 11:39:55;;;;;;;3.15;1.77;;;;;;;;;;5022777;28;20173;-78
2022/10/15 11:42:28;;;;;;;2.40;1.58;;;;;;;;;;5017503;28;20044;-77
2022/10/15 11:45:12;;;;;;;2.60;1.70;;;;;;;;;;5022385;28;20029;-75
2022/10/15 11:47:45;;;;;;;2.80;1.80;;;;;;;;;;5021870;28;20030;-76
2022/10/15 11:50:17;;;;;;;3.13;2.10;;;;;;;;;;5020897;28;20116;-75
2022/10/15 11:53:01;;;;;;;3.53;1.70;;;;;;;;;;5035721;28;20796;-76
2022/10/15 11:55:38;;;;;;;3.45;1.83;;;;;;;;;;5037463;28;20120;-75
2022/10/15 11:58:09;;;;;;;4.38;2.28;;;;;;;;;;5019328;28;20041;-74
2022/10/15 12:00:38;;;;;;;4.10;1.80;;;;;;;;;;5019276;28;20034;-75
2022/10/15 12:03:07;;;;;;;3.35;1.83;;;;;;;;;;5022422;28;20030;-75
2022/10/15 12:05:35;;;;;;;8.38;2.22;;;;;;;;;;5033132;28;20875;-75
2022/10/15 12:08:02;;;;;;;4.78;2.10;;;;;;;;;;5024456;28;20031;-75
2022/10/15 12:10:47;;;;;;;3.30;1.70;;;;;;;;;;5025267;28;20047;-74
2022/10/15 12:13:18;;;;;;;6.45;2.38;;;;;;;;;;5026484;28;20029;-78
2022/10/15 12:15:53;;;;;;;5.55;1.95;;;;;;;;;;5024017;28;20056;-78
2022/10/15 12:18:28;;;;;;;4.68;1.75;;;;;;;;;;5041353;28;20076;-76
2022/10/15 12:20:57;;;;;;;;;;;;;;;;;;5041646;28;20482;-78
2022/10/15 12:23:39;;;;;;;2.85;1.58;;;;;;;;;;5037510;28;19921;-77
2022/10/15 12:26:34;;;;;;;4.95;2.00;;;;;;;;;;5040539;28;20025;-75
2022/10/15 12:29:02;;;;;;;2.65;1.70;;;;;;;;;;5027181;28;20068;-75
2022/10/15 12:32:03;;;;;;;4.30;2.13;;;;;;;;;;5023474;28;20079;-75
2022/10/15 12:34:40;;;;;;;5.07;2.20;;;;;;;;;;5042266;28;20116;-74
2022/10/15 12:37:15;;;;;;;2.70;1.67;;;;;;;;;;5027082;28;20083;-75
2022/10/15 12:39:42;;;;;;;1.70;1.50;;;;;;;;;;5026167;28;20030;-74
2022/10/15 12:42:22;;;;;;;4.25;1.60;;;;;;;;;;5022534;28;20029;-76
2022/10/15 12:44:49;;;;;;;2.35;1.77;;;;;;;;;;5024056;28;20032;-74
2022/10/15 12:47:15;;;;;;;3.83;1.98;;;;;;;;;;5023771;28;20030;-77
2022/10/15 12:49:42;;;;;;;6.68;2.08;;;;;;;;;;5023588;28;20025;-80
2022/10/15 12:52:29;;;;;;;3.05;2.00;;;;;;;;;;5024044;28;20093;-74
2022/10/15 12:55:14;;;;;;;4.18;2.55;;;;;;;;;;5012365;28;20041;-81
2022/10/15 12:57:44;;;;;;;4.93;2.95;;;;;;;;;;5040045;28;20038;-76
2022/10/15 13:00:25;;;;;;;4.97;2.10;;;;;;;;;;5024368;28;20352;-75
2022/10/15 13:02:59;;;;;;;2.20;1.70;;;;;;;;;;5024540;28;20545;-75
2022/10/15 13:05:27;;;;;;;5.70;2.30;;;;;;;;;;5023830;28;20033;-77
2022/10/15 13:07:54;;;;;;;6.95;3.40;;;;;;;;;;5039849;28;20053;-78
2022/10/15 13:10:59;;;;;;;3.20;2.20;;;;;;;;;;5018083;28;20025;-77
2022/10/15 13:13:27;;;;;;;5.63;2.15;;;;;;;;;;5021344;28;20021;-77
2022/10/15 13:15:56;;;;;;;4.13;2.53;;;;;;;;;;5038784;28;20064;-75
2022/10/15 13:18:22;;;;;;;2.55;2.35;;;;;;;;;;5023652;28;20045;-73
2022/10/15 13:20:49;;;;;;;2.08;1.73;;;;;;;;;;5038434;28;20060;-72
2022/10/15 13:23:24;;;;;;;2.50;1.73;;;;;;;;;;5022166;28;20413;-75
2022/10/15 13:25:51;;;;;;;3.10;2.28;;;;;;;;;;5023922;28;20385;-75
2022/10/15 13:28:32;;;;;;;1.95;1.75;;;;;;;;;;5021576;28;20432;-73
2022/10/15 13:30:59;;;;;;;3.80;2.00;;;;;;;;;;5036216;28;21508;-75
2022/10/15 13:33:25;;;;;;;3.45;2.20;;;;;;;;;;5022112;28;20421;-75
2022/10/15 13:35:51;;;;;;;2.38;1.88;;;;;;;;;;5020294;28;20083;-74
2022/10/15 13:38:25;;;;;;;1.75;1.60;;;;;;;;;;5023488;28;20102;-77
2022/10/15 13:40:53;;;;;;;1.80;1.63;;;;;;;;;;5025686;28;20057;-74
2022/10/15 13:43:20;;;;;;;6.57;2.08;;;;;;;;;;5019582;28;20045;-76
2022/10/15 13:45:47;;;;;;;2.25;1.70;;;;;;;;;;5024715;28;20453;-75
2022/10/15 13:48:19;;;;;;;2.17;1.83;;;;;;;;;;5022946;28;20028;-75
2022/10/15 13:50:46;;;;;;;2.22;2.03;;;;;;;;;;5023653;28;20025;-74
2022/10/15 13:53:12;;;;;;;5.22;2.05;;;;;;;;;;5023124;28;20537;-75
2022/10/15 13:55:43;;;;;;;4.28;2.00;;;;;;;;;;5023347;28;20261;-74
2022/10/15 13:58:09;;;;;;;2.88;1.50;;;;;;;;;;5038738;28;20044;-75
2022/10/15 14:00:36;;;;;;;3.80;2.58;;;;;;;;;;5038968;28;20478;-74
2022/10/15 14:03:09;;;;;;;4.47;2.35;;;;;;;;;;5023858;28;20091;-75
2022/10/15 14:05:36;;;;;;;3.70;2.00;;;;;;;;;;5024056;28;20040;-76
2022/10/15 14:08:02;;;;;;;3.63;2.85;;;;;;;;;;5024122;28;20024;-76
2022/10/15 14:10:28;;;;;;;3.95;2.75;;;;;;;;;;5038567;28;20562;-76
2022/10/15 14:12:54;;;;;;;4.43;2.55;;;;;;;;;;5021522;28;20080;-74
2022/10/15 14:15:39;;;;;;;4.95;2.63;;;;;;;;;;5024269;28;20045;-76
2022/10/15 14:18:05;;;;;;;6.18;2.45;;;;;;;;;;5038220;28;20034;-75
2022/10/15 14:20:31;;;;;;;5.60;2.13;;;;;;;;;;5020431;28;22711;-75
2022/10/15 14:22:57;;;;;;;4.43;2.75;;;;;;;;;;5022493;28;20496;-76
2022/10/15 14:25:24;;;;;;;6.40;2.55;;;;;;;;;;5019066;28;20096;-75
2022/10/15 14:27:50;;;;;;;3.55;2.33;;;;;;;;;;5020069;28;20024;-75
2022/10/15 14:30:35;;;;;;;3.17;1.98;;;;;;;;;;5020741;28;20573;-74
2022/10/15 14:33:01;;;;;;;7.30;4.15;;;;;;;;;;5022069;28;20068;-76
2022/10/15 14:35:32;;;;;;;6.22;4.00;;;;;;;;;;5024757;28;20026;-76
2022/10/15 14:38:01;;;;;;;6.53;2.97;;;;;;;;;;5024115;28;20519;-76
2022/10/15 14:40:27;;;;;;;8.73;2.72;;;;;;;;;;5040262;28;20033;-75
2022/10/15 14:43:04;;;;;;;3.05;2.28;;;;;;;;;;5023273;28;20386;-76
2022/10/15 14:45:34;;;;;;;5.63;2.65;;;;;;;;;;5026473;28;20128;-75
2022/10/15 14:48:02;;;;;;;3.85;2.55;;;;;;;;;;5037935;28;20087;-76
2022/10/15 14:50:35;;;;;;;5.45;2.80;;;;;;;;;;5021971;28;20022;-76
2022/10/15 14:53:06;;;;;;;3.97;2.10;;;;;;;;;;5021674;28;20067;-76
2022/10/15 14:55:39;;;;;;;4.25;1.92;;;;;;;;;;5020039;28;20128;-77